Fairbanks, Arkansas
Current Conditions -  °F | °C
As of 2:56 AM on Sunday 26 Oct 2014 (Local Time) from KSRC Reporting Station
Moderate Fog Moderate Fog  
Wind Chill: 60°   Ceiling: 500
Heat Index: 60°   Visibility: 0.25mi
Dew Point: 60°   Wind: 0mph
Humidity: 100%   Direction: NA
Pressure: 30.01"   Gusts: NA
Location:  35.4081°N, 92.1263°W
Report Text: KSRC 260756Z AUTO 00000KT 1/4SM FG BKN005 16/16 A3001 RMK AO2 SLP165 T01560156 TSNO
Loading
Personal Weather Stations






























Interactive Weather Map
Tropical Storm Tracking
New forecast layout! Learn more

10-Day Weather Forecast

Advertisements
Track Severe Weather on mobile